Time;durP1;ratioP1;P1;durP2;ratioP2;P2;SDS_P1;SDS_P2;PMS_P1;PMS_P2;Temp;Humidity;BMP_temperature;BMP_pressure;BME280_temperature;BME280_humidity;BME280_pressure;Samples;Min_cycle;Max_cycle;Signal;HPM_P1;HPM_P2
2024/04/02 00:01:04;;;;;;;5.40;0.60;;;7.90;99.90;;;;;;5061392;28;20449;-67
2024/04/02 00:03:30;;;;;;;5.37;0.40;;;8.00;99.90;;;;;;5064503;28;20462;-66
2024/04/02 00:05:57;;;;;;;5.80;0.70;;;8.00;99.90;;;;;;5047065;28;20459;-66
2024/04/02 00:08:23;;;;;;;5.70;0.70;;;8.10;99.90;;;;;;5049792;28;20489;-66
2024/04/02 00:10:50;;;;;;;5.60;0.57;;;8.20;99.90;;;;;;5077635;28;20507;-66
2024/04/02 00:13:16;;;;;;;5.87;0.50;;;8.20;99.90;;;;;;5055016;28;20451;-66
2024/04/02 00:15:47;;;;;;;6.10;0.70;;;8.20;99.90;;;;;;5051747;28;20485;-67
2024/04/02 00:18:15;;;;;;;6.13;0.73;;;8.20;99.90;;;;;;5064720;28;20447;-66
2024/04/02 00:20:42;;;;;;;5.80;0.60;;;8.10;99.90;;;;;;5046284;28;20917;-66
2024/04/02 00:23:09;;;;;;;5.90;0.60;;;8.20;99.90;;;;;;5060038;28;20988;-66
2024/04/02 00:25:36;;;;;;;6.13;1.27;;;8.30;99.90;;;;;;5037414;28;20469;-67
2024/04/02 00:28:03;;;;;;;6.80;0.70;;;8.30;99.90;;;;;;5044052;28;20495;-69
2024/04/02 00:30:31;;;;;;;7.03;0.80;;;8.30;99.90;;;;;;5048206;28;21250;-67
2024/04/02 00:32:57;;;;;;;6.23;0.80;;;8.30;99.90;;;;;;5054804;28;20495;-67
2024/04/02 00:35:25;;;;;;;5.70;0.60;;;8.30;99.90;;;;;;5012164;28;20478;-67
2024/04/02 00:37:53;;;;;;;6.00;0.70;;;8.00;99.90;;;;;;5015199;28;20448;-66
2024/04/02 00:40:21;;;;;;;5.60;0.60;;;8.10;99.90;;;;;;5055742;28;20485;-67
2024/04/02 00:42:48;;;;;;;5.50;0.60;;;8.00;99.90;;;;;;5068574;28;20449;-67
2024/04/02 00:45:15;;;;;;;5.60;0.60;;;8.10;99.90;;;;;;5040540;28;20473;-67
2024/04/02 00:47:41;;;;;;;6.70;1.10;;;8.00;99.90;;;;;;5051084;28;20509;-67
2024/04/02 00:50:10;;;;;;;6.03;0.77;;;8.00;99.90;;;;;;5034603;28;20442;-66
2024/04/02 00:52:39;;;;;;;5.70;0.50;;;8.00;99.90;;;;;;5053419;28;20458;-67
2024/04/02 00:55:06;;;;;;;5.93;0.90;;;8.20;99.90;;;;;;5069714;28;20460;-67
2024/04/02 00:57:32;;;;;;;5.60;0.63;;;8.10;99.90;;;;;;5070146;28;20497;-67
2024/04/02 01:00:00;;;;;;;5.83;0.67;;;8.20;99.90;;;;;;5069974;28;20443;-68
2024/04/02 01:02:26;;;;;;;5.53;0.67;;;8.20;99.90;;;;;;5060774;28;20528;-66
2024/04/02 01:04:53;;;;;;;6.10;0.60;;;8.20;99.90;;;;;;5044180;28;20469;-68
2024/04/02 01:07:20;;;;;;;5.80;0.50;;;8.20;99.90;;;;;;5031930;28;21001;-67
2024/04/02 01:09:49;;;;;;;6.13;0.60;;;8.10;99.90;;;;;;5042074;28;20446;-67
2024/04/02 01:12:15;;;;;;;6.10;0.60;;;8.10;99.90;;;;;;5059036;28;20477;-67
2024/04/02 01:14:43;;;;;;;5.63;0.60;;;8.10;99.90;;;;;;5047311;28;20514;-67
2024/04/02 01:17:10;;;;;;;6.50;0.80;;;8.20;99.90;;;;;;5051368;28;20453;-68
2024/04/02 01:19:38;;;;;;;5.77;0.50;;;8.10;99.90;;;;;;5042390;28;20813;-68
2024/04/02 01:22:04;;;;;;;6.80;1.00;;;8.20;99.90;;;;;;5051806;28;20450;-67
2024/04/02 01:24:31;;;;;;;5.70;0.53;;;8.00;99.90;;;;;;5029899;28;20477;-67
2024/04/02 01:26:59;;;;;;;6.07;0.60;;;8.00;99.90;;;;;;5033404;28;20439;-67
2024/04/02 01:29:26;;;;;;;5.90;0.60;;;8.00;99.90;;;;;;5048622;28;20451;-66
2024/04/02 01:31:52;;;;;;;5.73;0.60;;;8.10;99.90;;;;;;5042783;28;20481;-66
2024/04/02 01:34:19;;;;;;;5.97;0.83;;;8.20;99.90;;;;;;5067556;28;20464;-66
2024/04/02 01:36:45;;;;;;;5.87;0.60;;;8.10;99.90;;;;;;5035573;28;20448;-67
2024/04/02 01:39:12;;;;;;;5.63;0.50;;;8.10;99.90;;;;;;5049934;28;20448;-67
2024/04/02 01:41:38;;;;;;;5.70;0.63;;;8.00;99.90;;;;;;5058777;28;20448;-67
2024/04/02 01:44:07;;;;;;;6.43;0.70;;;7.90;99.90;;;;;;5052821;28;20458;-67
2024/04/02 01:46:33;;;;;;;6.40;0.80;;;7.90;99.90;;;;;;5034000;28;20454;-66
2024/04/02 01:49:00;;;;;;;5.70;0.60;;;7.80;99.90;;;;;;5073095;28;20482;-67
2024/04/02 01:51:27;;;;;;;6.20;0.50;;;7.80;99.90;;;;;;5069829;28;20457;-67
2024/04/02 01:53:54;;;;;;;5.70;0.70;;;7.70;99.90;;;;;;5069432;28;20835;-67
2024/04/02 01:56:20;;;;;;;5.47;0.50;;;7.70;99.90;;;;;;5068667;28;20457;-67
2024/04/02 01:58:47;;;;;;;5.53;0.60;;;7.80;99.90;;;;;;5051754;28;20471;-65
2024/04/02 02:01:14;;;;;;;6.27;0.67;;;7.80;99.90;;;;;;5063834;28;20440;-66
2024/04/02 02:03:42;;;;;;;6.20;0.80;;;7.80;99.90;;;;;;5054541;28;20451;-67
2024/04/02 02:06:08;;;;;;;5.60;0.57;;;7.90;99.90;;;;;;5070035;28;20790;-67
2024/04/02 02:08:35;;;;;;;5.87;0.60;;;7.90;99.90;;;;;;5033939;28;20844;-67
2024/04/02 02:11:03;;;;;;;5.60;0.60;;;7.80;99.90;;;;;;5049601;28;20972;-67
2024/04/02 02:13:30;;;;;;;5.80;0.60;;;7.70;99.90;;;;;;5053933;28;20823;-67
2024/04/02 02:15:57;;;;;;;5.70;0.60;;;7.70;99.90;;;;;;5086793;28;20498;-67
2024/04/02 02:18:26;;;;;;;6.60;0.57;;;7.80;99.90;;;;;;5071441;28;20447;-66
2024/04/02 02:20:52;;;;;;;6.10;0.60;;;7.90;99.90;;;;;;5072791;28;20508;-67
2024/04/02 02:23:20;;;;;;;5.70;0.77;;;8.00;99.90;;;;;;5072688;28;20478;-66
2024/04/02 02:25:46;;;;;;;6.00;0.60;;;8.30;99.90;;;;;;5072620;28;20486;-67
2024/04/02 02:28:13;;;;;;;5.50;0.50;;;8.30;99.90;;;;;;5072740;28;20851;-67
2024/04/02 02:30:39;;;;;;;5.80;0.70;;;8.30;99.90;;;;;;5057508;28;20448;-67
2024/04/02 02:33:06;;;;;;;6.30;1.20;;;8.30;99.90;;;;;;5044913;28;20444;-67
2024/04/02 02:35:33;;;;;;;6.17;0.67;;;8.40;99.90;;;;;;5051750;28;20463;-67
2024/04/02 02:38:00;;;;;;;5.80;0.60;;;8.30;99.90;;;;;;5070836;28;21147;-67
2024/04/02 02:40:29;;;;;;;6.00;0.70;;;8.30;99.90;;;;;;5050829;28;20517;-67
2024/04/02 02:42:56;;;;;;;5.50;0.60;;;8.30;99.90;;;;;;5068972;28;20501;-67
2024/04/02 02:45:22;;;;;;;5.40;0.50;;;8.30;99.90;;;;;;5053508;28;20484;-67
2024/04/02 02:47:49;;;;;;;6.17;0.70;;;8.30;99.90;;;;;;5072370;28;20909;-67
2024/04/02 02:50:15;;;;;;;6.80;0.50;;;8.20;99.90;;;;;;5072530;28;20435;-66
2024/04/02 02:52:44;;;;;;;5.83;0.60;;;8.00;99.90;;;;;;5072374;28;20440;-67
2024/04/02 02:55:10;;;;;;;6.70;0.67;;;8.00;99.90;;;;;;5071988;28;20470;-67
2024/04/02 02:57:37;;;;;;;5.70;0.60;;;8.00;99.90;;;;;;5071964;28;20459;-67
2024/04/02 03:00:05;;;;;;;6.90;0.60;;;8.00;99.90;;;;;;5072187;28;20469;-66
2024/04/02 03:02:34;;;;;;;7.97;0.50;;;7.90;99.90;;;;;;5071927;28;20462;-67
2024/04/02 03:05:00;;;;;;;5.80;0.70;;;8.00;99.90;;;;;;5071576;28;20978;-65
2024/04/02 03:07:27;;;;;;;6.10;0.67;;;8.00;99.90;;;;;;5071944;28;20451;-67
2024/04/02 03:09:55;;;;;;;5.60;0.60;;;7.90;99.90;;;;;;5060971;28;20949;-67
2024/04/02 03:12:22;;;;;;;5.70;0.70;;;7.80;99.90;;;;;;5048605;28;20459;-67
2024/04/02 03:14:49;;;;;;;6.30;1.07;;;7.80;99.90;;;;;;5042350;28;20525;-66
2024/04/02 03:17:15;;;;;;;6.70;1.10;;;7.70;99.90;;;;;;5071361;28;20455;-67
2024/04/02 03:19:42;;;;;;;7.40;0.77;;;7.70;99.90;;;;;;5064524;28;20449;-67
2024/04/02 03:22:08;;;;;;;6.10;0.70;;;7.70;99.90;;;;;;5064508;28;21015;-67
2024/04/02 03:24:35;;;;;;;6.20;0.73;;;7.70;99.90;;;;;;5067621;28;20442;-67
2024/04/02 03:27:04;;;;;;;6.27;0.70;;;7.60;99.90;;;;;;5067837;28;20224;-67
2024/04/02 03:29:31;;;;;;;6.40;0.80;;;7.60;99.90;;;;;;5069457;28;20869;-67
2024/04/02 03:31:57;;;;;;;6.50;0.73;;;7.50;99.90;;;;;;5084822;28;20821;-68
2024/04/02 03:34:24;;;;;;;7.40;0.83;;;7.60;99.90;;;;;;5086322;28;20470;-67
2024/04/02 03:36:50;;;;;;;6.73;0.70;;;7.50;99.90;;;;;;5071243;28;20961;-68
2024/04/02 03:39:17;;;;;;;5.67;0.70;;;7.50;99.90;;;;;;5070790;28;20438;-68
2024/04/02 03:41:44;;;;;;;6.43;0.80;;;7.50;99.90;;;;;;5052254;28;20456;-68
2024/04/02 03:44:12;;;;;;;5.60;0.60;;;7.50;99.90;;;;;;5070317;28;20467;-68
2024/04/02 03:46:39;;;;;;;5.73;0.50;;;7.50;99.90;;;;;;5071039;28;20810;-68
2024/04/02 03:49:06;;;;;;;5.77;0.60;;;7.50;99.90;;;;;;5070268;28;20486;-68
2024/04/02 03:51:33;;;;;;;5.77;0.60;;;7.40;99.90;;;;;;5071032;28;20451;-68
2024/04/02 03:53:59;;;;;;;5.53;0.53;;;7.50;99.90;;;;;;5070615;28;20482;-68
2024/04/02 03:56:27;;;;;;;5.80;0.50;;;7.60;99.90;;;;;;5069972;28;20442;-68
2024/04/02 03:58:53;;;;;;;6.53;0.73;;;7.60;99.90;;;;;;5071172;28;20457;-68
2024/04/02 04:01:21;;;;;;;6.63;0.90;;;7.50;99.90;;;;;;5070641;28;20546;-67
2024/04/02 04:03:48;;;;;;;6.30;0.90;;;7.50;99.90;;;;;;5070675;28;20466;-67
2024/04/02 04:06:15;;;;;;;6.30;1.00;;;7.50;99.90;;;;;;5054741;28;20445;-68
2024/04/02 04:08:41;;;;;;;7.27;0.90;;;7.50;99.90;;;;;;5059874;28;20515;-68
2024/04/02 04:11:08;;;;;;;6.60;0.93;;;7.60;99.90;;;;;;5052388;28;20451;-68
2024/04/02 04:13:34;;;;;;;6.43;0.60;;;7.50;99.90;;;;;;5080521;28;20450;-69
2024/04/02 04:16:02;;;;;;;6.10;0.90;;;7.60;99.90;;;;;;5067551;28;20485;-68
2024/04/02 04:18:29;;;;;;;6.17;0.60;;;7.60;99.90;;;;;;5086146;28;20843;-68
2024/04/02 04:20:58;;;;;;;5.90;0.60;;;7.60;99.90;;;;;;5064909;28;20448;-68
2024/04/02 04:23:25;;;;;;;5.80;0.70;;;7.70;99.90;;;;;;5050832;28;20482;-67
2024/04/02 04:25:55;;;;;;;6.53;0.70;;;7.60;99.90;;;;;;5069651;28;20939;-68
2024/04/02 04:28:22;;;;;;;6.33;0.90;;;7.60;99.90;;;;;;5069358;28;20475;-68
2024/04/02 04:30:53;;;;;;;6.10;0.60;;;7.60;99.90;;;;;;5072856;28;20450;-68
2024/04/02 04:33:19;;;;;;;5.50;0.50;;;7.50;99.90;;;;;;5070850;28;20453;-67
2024/04/02 04:35:48;;;;;;;6.10;0.60;;;7.50;99.90;;;;;;5056852;28;20468;-68
2024/04/02 04:38:14;;;;;;;5.70;0.70;;;7.50;99.90;;;;;;5067682;28;20447;-68
2024/04/02 04:40:41;;;;;;;5.70;0.40;;;7.50;99.90;;;;;;5070051;28;20931;-68
2024/04/02 04:43:08;;;;;;;6.57;0.80;;;7.50;99.90;;;;;;5068218;28;20438;-68
2024/04/02 04:45:35;;;;;;;5.60;0.60;;;7.50;99.90;;;;;;5061410;28;20478;-68
2024/04/02 04:48:05;;;;;;;6.53;0.80;;;7.60;99.90;;;;;;5069441;28;20863;-68
2024/04/02 04:50:33;;;;;;;5.60;0.50;;;7.70;99.90;;;;;;5070226;28;20525;-68
2024/04/02 04:53:00;;;;;;;5.67;0.70;;;7.80;99.90;;;;;;5070171;28;20446;-68
2024/04/02 04:55:30;;;;;;;8.10;0.70;;;7.80;99.90;;;;;;5065565;28;20482;-67
2024/04/02 04:57:56;;;;;;;5.80;0.63;;;7.90;99.90;;;;;;5070319;28;20448;-67
2024/04/02 05:00:23;;;;;;;6.40;0.70;;;7.90;99.90;;;;;;5046542;28;20459;-68
2024/04/02 05:02:49;;;;;;;6.10;0.80;;;7.80;99.90;;;;;;5046454;28;20444;-68
2024/04/02 05:05:16;;;;;;;5.77;0.50;;;7.80;99.90;;;;;;5046659;28;20478;-68
2024/04/02 05:07:55;;;;;;;6.20;0.60;;;7.90;99.90;;;;;;5056890;28;20440;-68
2024/04/02 05:10:24;;;;;;;7.40;0.80;;;7.90;99.90;;;;;;5085261;28;20430;-68
2024/04/02 05:12:50;;;;;;;5.70;0.40;;;7.90;99.90;;;;;;5069978;28;21067;-68
2024/04/02 05:15:17;;;;;;;5.60;0.60;;;7.90;99.90;;;;;;5052958;28;20491;-67
2024/04/02 05:17:43;;;;;;;6.00;0.70;;;7.90;99.90;;;;;;5068586;28;20470;-68
2024/04/02 05:20:10;;;;;;;5.70;0.60;;;7.90;99.90;;;;;;5070002;28;20434;-67
2024/04/02 05:22:36;;;;;;;6.47;0.60;;;7.90;99.90;;;;;;5069234;28;20980;-68
2024/04/02 05:25:05;;;;;;;5.80;0.50;;;8.00;99.90;;;;;;5069444;28;20459;-67
2024/04/02 05:27:32;;;;;;;7.00;0.63;;;8.10;99.90;;;;;;5086163;28;20446;-68
2024/04/02 05:29:59;;;;;;;5.53;0.43;;;8.10;99.90;;;;;;5069469;28;20478;-68
2024/04/02 05:32:25;;;;;;;5.90;0.70;;;8.10;99.90;;;;;;5069449;28;20442;-66
2024/04/02 05:34:52;;;;;;;6.40;1.50;;;8.10;99.90;;;;;;5069708;28;20829;-67
2024/04/02 05:37:18;;;;;;;5.70;0.60;;;8.20;99.90;;;;;;5070271;28;20453;-68
2024/04/02 05:39:48;;;;;;;5.53;0.50;;;8.20;99.90;;;;;;5053759;28;20438;-68
2024/04/02 05:42:15;;;;;;;5.90;0.50;;;8.30;99.90;;;;;;5058537;28;20501;-67
2024/04/02 05:44:43;;;;;;;5.70;0.50;;;8.30;99.90;;;;;;5055995;28;21191;-66
2024/04/02 05:47:09;;;;;;;5.60;0.57;;;8.30;99.90;;;;;;5073401;28;20447;-67
2024/04/02 05:49:36;;;;;;;6.20;0.40;;;8.40;99.90;;;;;;5067410;28;20483;-69
2024/04/02 05:52:03;;;;;;;5.67;0.50;;;8.50;99.90;;;;;;5063338;28;20454;-68
2024/04/02 05:54:30;;;;;;;5.67;0.63;;;8.40;99.90;;;;;;5074104;28;20454;-67
2024/04/02 05:56:56;;;;;;;5.60;0.60;;;8.50;99.90;;;;;;5073334;28;20448;-67
2024/04/02 05:59:23;;;;;;;5.70;0.50;;;8.50;99.90;;;;;;5073183;28;20434;-67
2024/04/02 06:01:51;;;;;;;5.57;0.50;;;8.60;99.90;;;;;;5073471;28;20454;-67
2024/04/02 06:04:18;;;;;;;5.70;0.50;;;8.60;99.90;;;;;;5073164;28;20467;-67
2024/04/02 06:06:46;;;;;;;6.50;0.60;;;8.70;99.90;;;;;;5073043;28;20454;-67
2024/04/02 06:09:13;;;;;;;5.53;0.70;;;8.70;99.90;;;;;;5042047;28;20484;-67
2024/04/02 06:11:39;;;;;;;5.60;0.60;;;8.90;99.90;;;;;;5069286;28;20444;-68
2024/04/02 06:14:06;;;;;;;6.10;0.50;;;9.00;99.90;;;;;;5056045;28;21012;-68
2024/04/02 06:16:32;;;;;;;6.13;0.60;;;9.30;99.90;;;;;;5089660;28;20450;-68
2024/04/02 06:19:01;;;;;;;5.80;0.60;;;9.50;99.90;;;;;;5071938;28;20505;-68
2024/04/02 06:21:27;;;;;;;5.70;0.63;;;9.50;99.90;;;;;;5072865;28;20439;-68
2024/04/02 06:23:54;;;;;;;7.13;0.70;;;9.40;99.90;;;;;;5072478;28;20987;-67
2024/04/02 06:26:20;;;;;;;8.10;0.60;;;9.50;99.90;;;;;;5072987;28;21108;-68
2024/04/02 06:28:47;;;;;;;6.43;0.60;;;9.70;99.90;;;;;;5050078;28;20502;-67
2024/04/02 06:31:13;;;;;;;6.80;0.63;;;9.90;99.90;;;;;;5068841;28;20919;-68
2024/04/02 06:33:40;;;;;;;6.30;1.13;;;10.00;99.90;;;;;;5057027;28;20821;-67
2024/04/02 06:36:07;;;;;;;9.60;0.70;;;10.00;99.90;;;;;;5056699;28;20445;-68
2024/04/02 06:38:34;;;;;;;5.53;0.50;;;10.00;99.90;;;;;;5074052;28;20457;-67
2024/04/02 06:41:00;;;;;;;5.70;0.57;;;9.90;99.90;;;;;;5057805;28;20459;-67
2024/04/02 06:43:27;;;;;;;5.40;0.40;;;9.80;99.90;;;;;;5054784;28;20450;-66
2024/04/02 06:45:54;;;;;;;5.40;0.40;;;9.80;99.90;;;;;;5041705;28;20513;-68
2024/04/02 06:48:21;;;;;;;5.67;0.57;;;9.70;99.90;;;;;;5047468;28;20479;-67
2024/04/02 06:50:56;;;;;;;5.70;0.50;;;9.70;99.90;;;;;;5070717;28;21029;-68
2024/04/02 06:53:25;;;;;;;6.00;0.60;;;9.80;99.90;;;;;;5070761;28;20459;-67
2024/04/02 06:55:51;;;;;;;5.63;0.47;;;9.80;99.90;;;;;;5087567;28;20447;-68
2024/04/02 06:58:18;;;;;;;5.47;0.50;;;9.80;99.90;;;;;;5071231;28;20461;-67
2024/04/02 07:00:45;;;;;;;5.80;0.40;;;9.80;99.90;;;;;;5070390;28;20449;-68
2024/04/02 07:03:16;;;;;;;6.47;0.50;;;10.00;99.90;;;;;;5068532;28;20960;-68
2024/04/02 07:05:42;;;;;;;5.60;0.40;;;10.10;99.90;;;;;;5070107;28;20234;-69
2024/04/02 07:08:09;;;;;;;5.60;0.60;;;10.20;99.90;;;;;;5071156;28;20845;-68
2024/04/02 07:10:39;;;;;;;5.50;0.50;;;10.20;99.90;;;;;;5068917;28;20479;-67
2024/04/02 07:13:06;;;;;;;5.43;0.40;;;10.00;99.90;;;;;;5057809;28;20440;-68
2024/04/02 07:15:32;;;;;;;5.30;0.30;;;10.10;99.90;;;;;;5068515;28;20476;-68
2024/04/02 07:17:59;;;;;;;6.63;0.50;;;10.10;99.90;;;;;;5054153;28;20449;-68
2024/04/02 07:20:25;;;;;;;5.80;0.50;;;9.90;99.90;;;;;;5058713;28;20438;-70
2024/04/02 07:22:52;;;;;;;5.83;0.50;;;9.90;99.90;;;;;;5070986;28;21004;-69
2024/04/02 07:25:18;;;;;;;5.93;0.50;;;9.90;99.90;;;;;;5070715;28;20473;-68
2024/04/02 07:27:47;;;;;;;6.33;0.50;;;10.00;99.90;;;;;;5071081;28;20452;-68
2024/04/02 07:30:13;;;;;;;7.13;0.60;;;10.10;99.90;;;;;;5070697;28;20478;-67
2024/04/02 07:32:40;;;;;;;5.53;0.57;;;10.10;99.90;;;;;;5070395;28;20574;-67
2024/04/02 07:35:06;;;;;;;7.03;0.70;;;10.20;99.90;;;;;;5070352;28;20840;-66
2024/04/02 07:37:34;;;;;;;6.10;0.60;;;10.30;99.90;;;;;;5087868;28;20457;-69
2024/04/02 07:39:59;;;;;;;6.83;1.00;;;10.40;99.90;;;;;;5088285;28;20442;-66
2024/04/02 07:42:26;;;;;;;7.30;1.10;;;10.60;99.90;;;;;;5052967;28;20447;-68
2024/04/02 07:44:54;;;;;;;7.60;0.90;;;10.60;99.90;;;;;;5041287;28;20483;-68
2024/04/02 07:47:21;;;;;;;6.30;0.73;;;10.60;99.90;;;;;;5055300;28;21001;-68
2024/04/02 07:49:47;;;;;;;6.30;0.70;;;10.60;99.90;;;;;;5030864;28;20479;-68
2024/04/02 07:52:14;;;;;;;6.87;0.67;;;10.70;99.90;;;;;;5052402;28;20974;-68
2024/04/02 07:54:40;;;;;;;7.33;0.73;;;10.80;99.90;;;;;;5070222;28;20481;-68
2024/04/02 07:57:07;;;;;;;6.77;0.70;;;10.80;99.90;;;;;;5070833;28;20449;-68
2024/04/02 07:59:33;;;;;;;6.90;1.17;;;10.90;99.90;;;;;;5070308;28;20446;-68
2024/04/02 08:02:02;;;;;;;7.20;1.20;;;11.10;99.90;;;;;;5049350;28;20448;-68
2024/04/02 08:04:28;;;;;;;8.27;1.00;;;11.50;99.90;;;;;;5083902;28;20478;-69
2024/04/02 08:06:55;;;;;;;6.80;0.70;;;11.90;99.90;;;;;;5066661;28;20825;-69
2024/04/02 08:09:21;;;;;;;6.10;1.07;;;11.90;99.90;;;;;;5054262;28;20897;-69
2024/04/02 08:11:48;;;;;;;6.40;0.80;;;11.90;99.90;;;;;;5070260;28;20803;-69
2024/04/02 08:14:14;;;;;;;10.07;1.10;;;11.90;99.90;;;;;;5058912;28;20463;-67
2024/04/02 08:16:42;;;;;;;7.03;0.80;;;12.10;99.90;;;;;;5051080;28;21016;-66
2024/04/02 08:19:09;;;;;;;7.63;0.87;;;12.10;99.90;;;;;;5064817;28;21022;-66
2024/04/02 08:21:36;;;;;;;6.40;0.63;;;11.80;99.90;;;;;;5066275;28;20442;-66
2024/04/02 08:24:02;;;;;;;6.87;0.70;;;11.70;99.90;;;;;;5039802;28;20464;-67
2024/04/02 08:26:29;;;;;;;6.93;0.70;;;11.80;99.90;;;;;;5050736;28;20447;-68
2024/04/02 08:28:56;;;;;;;8.90;0.97;;;11.90;99.90;;;;;;5067309;28;20482;-68
2024/04/02 08:31:23;;;;;;;9.07;0.70;;;11.90;99.90;;;;;;5040485;28;20480;-68
2024/04/02 08:33:49;;;;;;;10.63;1.10;;;12.00;99.90;;;;;;5068347;28;20857;-67
2024/04/02 08:36:17;;;;;;;7.63;1.03;;;12.50;99.90;;;;;;5069019;28;21064;-67
2024/04/02 08:38:43;;;;;;;7.90;1.00;;;12.80;99.90;;;;;;5040928;28;20455;-67
2024/04/02 08:41:12;;;;;;;7.67;0.80;;;12.80;99.90;;;;;;5055722;28;20444;-67
2024/04/02 08:43:43;;;;;;;6.10;0.77;;;12.60;99.90;;;;;;5056044;28;20455;-67
2024/04/02 08:46:11;;;;;;;8.93;1.57;;;12.60;99.90;;;;;;5060296;28;20456;-69
2024/04/02 08:48:37;;;;;;;8.43;1.00;;;12.40;99.90;;;;;;5067840;28;20451;-69
2024/04/02 08:51:05;;;;;;;7.30;0.70;;;12.60;99.90;;;;;;5064649;28;20481;-66
2024/04/02 08:53:33;;;;;;;6.00;0.60;;;12.60;99.90;;;;;;5046456;28;20465;-67
2024/04/02 08:56:02;;;;;;;9.17;1.70;;;12.40;99.90;;;;;;5061774;28;20444;-67
2024/04/02 08:58:30;;;;;;;9.50;0.90;;;11.90;99.90;;;;;;5069693;28;20443;-69
2024/04/02 09:00:58;;;;;;;6.00;0.90;;;12.00;99.90;;;;;;5070175;28;20442;-69
2024/04/02 09:03:24;;;;;;;7.37;0.90;;;11.80;99.90;;;;;;5069412;28;20446;-67
2024/04/02 09:05:51;;;;;;;8.10;1.00;;;11.60;99.90;;;;;;5049596;28;20462;-67
2024/04/02 09:08:17;;;;;;;8.20;0.80;;;11.50;99.90;;;;;;5050569;28;20505;-68
2024/04/02 09:10:46;;;;;;;6.10;1.10;;;11.70;99.90;;;;;;5069257;28;20480;-68
2024/04/02 09:13:12;;;;;;;17.60;2.33;;;11.60;99.90;;;;;;5071178;28;20450;-68
2024/04/02 09:15:40;;;;;;;37.30;6.47;;;11.60;99.90;;;;;;5070592;28;20471;-68
2024/04/02 09:18:06;;;;;;;6.03;0.70;;;11.70;99.90;;;;;;5081530;28;20454;-68
2024/04/02 09:20:36;;;;;;;19.13;2.70;;;11.90;99.90;;;;;;5091388;28;21252;-68
2024/04/02 09:23:03;;;;;;;16.43;3.63;;;12.00;99.90;;;;;;5075881;28;20450;-68
2024/04/02 09:25:30;;;;;;;15.97;2.20;;;12.10;99.90;;;;;;5075124;28;20474;-67
2024/04/02 09:27:58;;;;;;;18.27;1.60;;;12.10;99.90;;;;;;5076071;28;20444;-68
2024/04/02 09:30:27;;;;;;;10.43;1.50;;;12.70;99.90;;;;;;5060793;28;20486;-68
2024/04/02 09:32:54;;;;;;;8.17;1.07;;;12.60;99.90;;;;;;5048782;28;20479;-68
2024/04/02 09:35:30;;;;;;;6.40;0.80;;;12.70;99.90;;;;;;5071970;28;20528;-69
2024/04/02 09:37:59;;;;;;;7.73;0.97;;;12.60;99.80;;;;;;5050339;28;20966;-68
2024/04/02 09:40:28;;;;;;;6.30;0.90;;;12.60;99.10;;;;;;5081883;28;20446;-68
2024/04/02 09:42:56;;;;;;;8.17;1.13;;;13.10;98.80;;;;;;5058269;28;20490;-69
2024/04/02 09:45:27;;;;;;;8.07;1.00;;;12.90;98.00;;;;;;5060153;28;21001;-68
2024/04/02 09:47:54;;;;;;;6.30;0.83;;;12.70;97.00;;;;;;5056249;28;20451;-68
2024/04/02 09:50:22;;;;;;;7.63;1.07;;;12.40;97.90;;;;;;5089393;28;21040;-67
2024/04/02 09:52:50;;;;;;;8.17;1.10;;;12.10;96.80;;;;;;5048478;28;20453;-68
2024/04/02 09:55:17;;;;;;;10.70;1.47;;;11.90;96.00;;;;;;5053695;28;21008;-68
2024/04/02 09:57:45;;;;;;;8.33;1.10;;;12.00;97.00;;;;;;5056725;28;21148;-67
2024/04/02 10:00:12;;;;;;;6.20;1.07;;;12.30;98.20;;;;;;5052626;28;20441;-68
2024/04/02 10:02:40;;;;;;;8.90;1.57;;;12.30;96.70;;;;;;5048375;28;20457;-68
2024/04/02 10:05:09;;;;;;;7.00;0.80;;;12.50;97.20;;;;;;5066902;28;20504;-68
2024/04/02 10:07:41;;;;;;;7.30;2.27;;;12.50;96.40;;;;;;5053040;28;20445;-68
2024/04/02 10:10:08;;;;;;;11.83;1.13;;;12.30;97.10;;;;;;5057746;28;20484;-69
2024/04/02 10:12:34;;;;;;;8.03;1.10;;;12.60;96.40;;;;;;5060661;28;20450;-68
2024/04/02 10:15:05;;;;;;;9.60;0.90;;;12.80;96.30;;;;;;5058648;28;21124;-68
2024/04/02 10:17:34;;;;;;;7.27;0.90;;;12.60;95.30;;;;;;5059134;28;20459;-68
2024/04/02 10:20:02;;;;;;;8.10;0.70;;;12.50;95.30;;;;;;5070320;28;20452;-67
2024/04/02 10:22:36;;;;;;;9.07;1.10;;;12.50;95.30;;;;;;5057924;28;20452;-67
2024/04/02 10:25:06;;;;;;;10.10;1.50;;;12.60;95.30;;;;;;5072096;28;20469;-67
2024/04/02 10:27:35;;;;;;;7.50;1.17;;;12.70;93.80;;;;;;5065247;28;20457;-68
2024/04/02 10:30:02;;;;;;;11.87;1.67;;;13.10;93.30;;;;;;5070861;28;20502;-68
2024/04/02 10:32:34;;;;;;;7.40;0.90;;;13.80;91.90;;;;;;5062686;28;20453;-67
2024/04/02 10:35:04;;;;;;;7.83;1.03;;;14.20;91.00;;;;;;5067687;28;20458;-67
2024/04/02 10:37:30;;;;;;;9.90;1.10;;;14.50;90.10;;;;;;5061702;28;20455;-66
2024/04/02 10:39:58;;;;;;;7.50;1.30;;;14.40;87.20;;;;;;5057528;28;20445;-67
2024/04/02 10:42:24;;;;;;;11.40;1.93;;;13.80;87.60;;;;;;5055019;28;20447;-68
2024/04/02 10:44:53;;;;;;;7.40;1.17;;;13.60;88.40;;;;;;5052600;28;20526;-68
2024/04/02 10:47:19;;;;;;;6.80;0.90;;;13.20;86.40;;;;;;5063015;28;20460;-69
2024/04/02 10:49:50;;;;;;;10.80;1.37;;;12.70;84.70;;;;;;5050599;28;20498;-69
2024/04/02 10:52:17;;;;;;;7.40;1.37;;;12.60;86.40;;;;;;5049797;28;20812;-69
2024/04/02 10:54:44;;;;;;;8.20;0.87;;;13.10;85.10;;;;;;5053804;28;20862;-68
2024/04/02 10:57:11;;;;;;;10.43;1.00;;;13.60;82.90;;;;;;5067679;28;20458;-68
2024/04/02 10:59:38;;;;;;;6.47;0.70;;;13.50;84.10;;;;;;5060266;28;20533;-68
2024/04/02 11:02:18;;;;;;;10.20;0.80;;;13.60;82.50;;;;;;5057449;28;20504;-69
2024/04/02 11:04:45;;;;;;;7.37;1.00;;;14.00;81.60;;;;;;5037858;28;20459;-68
2024/04/02 11:07:11;;;;;;;6.73;0.80;;;13.90;78.70;;;;;;5057244;28;20450;-69
2024/04/02 11:09:40;;;;;;;6.60;0.77;;;13.60;78.70;;;;;;5074450;28;20483;-69
2024/04/02 11:12:07;;;;;;;6.83;0.80;;;13.20;80.00;;;;;;5042073;28;20445;-68
2024/04/02 11:14:34;;;;;;;6.33;1.00;;;13.00;83.30;;;;;;5049875;28;21256;-70
2024/04/02 11:17:00;;;;;;;6.90;0.97;;;13.00;84.20;;;;;;5064684;28;20457;-68
2024/04/02 11:19:27;;;;;;;7.07;0.90;;;13.00;85.90;;;;;;5051940;28;20447;-69
2024/04/02 11:24:57;;;;;;;8.43;1.07;;;13.50;85.50;;;;;;5057415;28;20444;-68
2024/04/02 11:27:27;;;;;;;7.13;0.80;;;14.80;89.20;;;;;;5042560;28;20949;-70
2024/04/02 11:29:55;;;;;;;5.50;0.60;;;16.00;83.90;;;;;;5067903;28;20476;-69
2024/04/02 11:32:21;;;;;;;6.63;0.80;;;15.90;75.80;;;;;;5067963;28;20456;-68
2024/04/02 11:34:56;;;;;;;8.83;1.07;;;15.30;77.10;;;;;;5041699;28;20522;-68
2024/04/02 11:37:22;;;;;;;6.73;0.90;;;14.80;77.40;;;;;;5060425;28;20807;-69
2024/04/02 11:39:51;;;;;;;6.90;0.90;;;14.30;80.40;;;;;;5056638;28;20823;-68
2024/04/02 11:42:17;;;;;;;6.53;1.00;;;14.50;80.50;;;;;;5070449;28;20967;-69
2024/04/02 11:44:44;;;;;;;6.13;0.63;;;14.20;78.70;;;;;;5066921;28;20887;-68
2024/04/02 11:47:12;;;;;;;6.37;0.60;;;14.60;79.40;;;;;;5055700;28;20447;-68
2024/04/02 11:49:40;;;;;;;10.33;0.80;;;15.20;77.50;;;;;;5069503;28;20446;-68
2024/04/02 11:52:06;;;;;;;6.40;0.57;;;15.20;74.80;;;;;;5047683;28;20447;-69
2024/04/02 11:54:34;;;;;;;5.90;0.70;;;15.10;75.30;;;;;;5051299;28;20474;-69
2024/04/02 12:02:32;;;;;;;6.00;0.70;;;15.50;75.60;;;;;;5049041;28;20965;-68
2024/04/02 12:05:00;;;;;;;6.67;0.77;;;16.00;73.30;;;;;;5050530;28;20467;-67
2024/04/02 12:07:28;;;;;;;7.20;0.70;;;16.10;75.00;;;;;;5051258;28;20454;-67
2024/04/02 12:09:56;;;;;;;7.27;0.60;;;15.50;72.60;;;;;;5048789;28;20484;-68
2024/04/02 12:12:23;;;;;;;7.20;1.20;;;15.00;74.60;;;;;;5049918;28;20982;-67
2024/04/02 12:14:51;;;;;;;6.10;0.63;;;14.30;80.50;;;;;;5063328;28;20812;-69
2024/04/02 12:17:17;;;;;;;7.10;0.60;;;13.70;84.60;;;;;;5065895;28;20451;-66
2024/04/02 12:19:44;;;;;;;6.60;0.77;;;13.50;85.40;;;;;;5060714;28;20905;-70
2024/04/02 12:22:11;;;;;;;7.13;0.60;;;14.10;83.60;;;;;;5061437;28;20474;-69
2024/04/02 12:24:39;;;;;;;6.30;0.80;;;15.40;82.60;;;;;;5047831;28;20477;-69
2024/04/02 12:27:05;;;;;;;6.17;0.53;;;16.40;78.40;;;;;;5052299;28;20946;-68
2024/04/02 12:29:34;;;;;;;6.73;0.80;;;17.30;77.20;;;;;;5047838;28;21005;-67
2024/04/02 12:32:00;;;;;;;7.30;1.13;;;17.10;68.00;;;;;;5063250;28;20450;-69
2024/04/02 12:34:28;;;;;;;5.93;0.70;;;16.30;67.40;;;;;;5050734;28;20973;-69
2024/04/02 12:36:54;;;;;;;6.83;0.73;;;16.60;67.70;;;;;;5053353;28;20522;-69
2024/04/02 12:39:21;;;;;;;6.00;0.80;;;16.90;66.30;;;;;;5061834;28;20451;-67
2024/04/02 12:41:48;;;;;;;7.00;0.70;;;15.50;66.00;;;;;;5068472;28;20958;-68
2024/04/02 12:44:15;;;;;;;5.40;0.57;;;14.40;69.60;;;;;;5048872;28;20470;-68
2024/04/02 12:46:43;;;;;;;8.20;0.80;;;13.90;72.50;;;;;;5048406;28;20446;-68
2024/04/02 12:49:11;;;;;;;6.60;0.73;;;14.80;75.30;;;;;;5068331;28;20440;-67
2024/04/02 12:51:38;;;;;;;6.10;0.40;;;15.60;72.50;;;;;;5046638;28;20484;-68
2024/04/02 12:54:10;;;;;;;6.03;0.80;;;15.70;71.90;;;;;;5063930;28;20475;-68
2024/04/02 12:56:39;;;;;;;6.60;0.63;;;16.10;72.40;;;;;;5038654;28;20444;-69
2024/04/02 12:59:06;;;;;;;6.70;0.80;;;15.60;71.50;;;;;;5047158;28;20446;-68
2024/04/02 13:01:32;;;;;;;6.15;0.70;;;16.40;73.20;;;;;;5066010;28;20472;-68